sensor_id;sensor_type;location;lat;lon;timestamp;pressure;altitude;pressure_sealevel;temperature;humidity
39773;BME280;25451;51.960;6.250;2023-02-13T00:01:31;103630.97;;;8.68;72.51
39773;BME280;25451;51.960;6.250;2023-02-13T00:03:56;103630.81;;;8.70;72.57
39773;BME280;25451;51.960;6.250;2023-02-13T00:06:22;103622.91;;;8.67;72.88
39773;BME280;25451;51.960;6.250;2023-02-13T00:08:47;103627.34;;;8.68;72.68
39773;BME280;25451;51.960;6.250;2023-02-13T00:11:13;103624.59;;;8.68;72.42
39773;BME280;25451;51.960;6.250;2023-02-13T00:13:38;103622.91;;;8.67;72.44
39773;BME280;25451;51.960;6.250;2023-02-13T00:16:04;103621.16;;;8.66;72.68
39773;BME280;25451;51.960;6.250;2023-02-13T00:18:34;103614.94;;;8.64;72.87
39773;BME280;25451;51.960;6.250;2023-02-13T00:21:03;103620.47;;;8.64;72.89
39773;BME280;25451;51.960;6.250;2023-02-13T00:23:30;103619.75;;;8.62;72.65
39773;BME280;25451;51.960;6.250;2023-02-13T00:25:56;103619.75;;;8.62;72.89
39773;BME280;25451;51.960;6.250;2023-02-13T00:28:21;103611.84;;;8.59;72.70
39773;BME280;25451;51.960;6.250;2023-02-13T00:30:46;103621.97;;;8.58;72.70
39773;BME280;25451;51.960;6.250;2023-02-13T00:33:12;103621.28;;;8.56;72.67
39773;BME280;25451;51.960;6.250;2023-02-13T00:35:37;103610.44;;;8.55;73.16
39773;BME280;25451;51.960;6.250;2023-02-13T00:38:02;103617.84;;;8.54;72.87
39773;BME280;25451;51.960;6.250;2023-02-13T00:40:28;103611.78;;;8.51;72.71
39773;BME280;25451;51.960;6.250;2023-02-13T00:42:53;103612.81;;;8.50;72.79
39773;BME280;25451;51.960;6.250;2023-02-13T00:45:18;103611.09;;;8.49;72.85
39773;BME280;25451;51.960;6.250;2023-02-13T00:47:43;103611.22;;;8.47;73.38
39773;BME280;25451;51.960;6.250;2023-02-13T00:50:09;103614.00;;;8.47;73.33
39773;BME280;25451;51.960;6.250;2023-02-13T00:52:34;103605.91;;;8.46;73.20
39773;BME280;25451;51.960;6.250;2023-02-13T00:55:00;103613.16;;;8.47;73.24
39773;BME280;25451;51.960;6.250;2023-02-13T00:57:25;103616.03;;;8.45;72.76
39773;BME280;25451;51.960;6.250;2023-02-13T00:59:50;103607.47;;;8.48;73.36
39773;BME280;25451;51.960;6.250;2023-02-13T01:02:16;103610.22;;;8.48;72.98
39773;BME280;25451;51.960;6.250;2023-02-13T01:04:41;103609.34;;;8.48;73.04
39773;BME280;25451;51.960;6.250;2023-02-13T01:07:06;103609.34;;;8.48;72.93
39773;BME280;25451;51.960;6.250;2023-02-13T01:09:32;103610.41;;;8.47;72.90
39773;BME280;25451;51.960;6.250;2023-02-13T01:11:57;103604.91;;;8.47;73.22
39773;BME280;25451;51.960;6.250;2023-02-13T01:14:24;103609.34;;;8.48;73.24
39773;BME280;25451;51.960;6.250;2023-02-13T01:16:49;103609.34;;;8.48;73.01
39773;BME280;25451;51.960;6.250;2023-02-13T01:19:14;103619.50;;;8.47;73.09
39773;BME280;25451;51.960;6.250;2023-02-13T01:21:41;103612.09;;;8.48;73.28
39773;BME280;25451;51.960;6.250;2023-02-13T01:24:07;103606.25;;;8.43;73.13
39773;BME280;25451;51.960;6.250;2023-02-13T01:26:32;103615.19;;;8.45;73.25
39773;BME280;25451;51.960;6.250;2023-02-13T01:28:57;103602.44;;;8.44;73.33
39773;BME280;25451;51.960;6.250;2023-02-13T01:31:23;103607.94;;;8.44;73.16
39773;BME280;25451;51.960;6.250;2023-02-13T01:33:48;103607.94;;;8.44;73.44
39773;BME280;25451;51.960;6.250;2023-02-13T01:36:14;103603.50;;;8.43;72.86
39773;BME280;25451;51.960;6.250;2023-02-13T01:38:40;103592.44;;;8.34;73.29
39773;BME280;25451;51.960;6.250;2023-02-13T01:41:06;103598.00;;;8.43;73.12
39773;BME280;25451;51.960;6.250;2023-02-13T01:43:55;103596.25;;;8.42;73.38
39773;BME280;25451;51.960;6.250;2023-02-13T01:46:29;103603.63;;;8.41;73.45
39773;BME280;25451;51.960;6.250;2023-02-13T01:49:00;103597.28;;;8.41;73.21
39773;BME280;25451;51.960;6.250;2023-02-13T01:51:31;103588.34;;;8.39;73.45
39773;BME280;25451;51.960;6.250;2023-02-13T01:54:09;103594.69;;;8.39;73.35
39773;BME280;25451;51.960;6.250;2023-02-13T01:56:44;103584.88;;;8.37;73.06
39773;BME280;25451;51.960;6.250;2023-02-13T01:59:15;103585.72;;;8.37;72.93
39773;BME280;25451;51.960;6.250;2023-02-13T02:01:41;103576.56;;;8.28;73.18
39773;BME280;25451;51.960;6.250;2023-02-13T02:04:18;103587.06;;;8.33;73.11
39773;BME280;25451;51.960;6.250;2023-02-13T02:06:49;103590.69;;;8.33;73.36
39773;BME280;25451;51.960;6.250;2023-02-13T02:09:17;103590.16;;;8.30;73.68
39773;BME280;25451;51.960;6.250;2023-02-13T02:11:54;103598.25;;;8.31;73.17
39773;BME280;25451;51.960;6.250;2023-02-13T02:14:20;103598.06;;;8.33;73.44
39773;BME280;25451;51.960;6.250;2023-02-13T02:16:45;103594.50;;;8.32;73.31
39773;BME280;25451;51.960;6.250;2023-02-13T02:19:29;103590.69;;;8.33;73.77
39773;BME280;25451;51.960;6.250;2023-02-13T02:34:28;103581.03;;;8.29;73.19
39773;BME280;25451;51.960;6.250;2023-02-13T02:37:26;103578.97;;;8.31;73.33
39773;BME280;25451;51.960;6.250;2023-02-13T02:43:16;103577.09;;;8.32;73.20
39773;BME280;25451;51.960;6.250;2023-02-13T02:48:54;103577.09;;;8.32;73.27
39773;BME280;25451;51.960;6.250;2023-02-13T02:52:04;103584.50;;;8.31;73.65
39773;BME280;25451;51.960;6.250;2023-02-13T02:54:48;103581.75;;;8.31;73.12
39773;BME280;25451;51.960;6.250;2023-02-13T02:57:33;103585.38;;;8.32;73.29
39773;BME280;25451;51.960;6.250;2023-02-13T03:00:20;103583.47;;;8.32;73.42
39773;BME280;25451;51.960;6.250;2023-02-13T03:03:13;103583.47;;;8.32;73.43
39773;BME280;25451;51.960;6.250;2023-02-13T03:06:00;103570.19;;;8.28;73.49
39773;BME280;25451;51.960;6.250;2023-02-13T03:08:37;103566.97;;;8.32;73.45
39773;BME280;25451;51.960;6.250;2023-02-13T03:11:22;103564.69;;;8.28;73.20
39773;BME280;25451;51.960;6.250;2023-02-13T03:14:08;103574.19;;;8.33;73.35
39773;BME280;25451;51.960;6.250;2023-02-13T03:16:35;103567.09;;;8.31;73.64
39773;BME280;25451;51.960;6.250;2023-02-13T03:27:58;103572.13;;;8.35;73.51
39773;BME280;25451;51.960;6.250;2023-02-13T03:33:13;103578.50;;;8.36;73.66
39773;BME280;25451;51.960;6.250;2023-02-13T03:35:47;103559.03;;;8.29;73.61
39773;BME280;25451;51.960;6.250;2023-02-13T03:41:28;103576.63;;;8.37;73.84
39773;BME280;25451;51.960;6.250;2023-02-13T03:44:14;103575.75;;;8.36;73.50
39773;BME280;25451;51.960;6.250;2023-02-13T03:46:45;103577.47;;;8.37;73.78
39773;BME280;25451;51.960;6.250;2023-02-13T03:49:23;103573.00;;;8.36;73.99
39773;BME280;25451;51.960;6.250;2023-02-13T03:55:13;103585.19;;;8.33;73.95
39773;BME280;25451;51.960;6.250;2023-02-13T03:58:03;103587.63;;;8.37;73.55
39773;BME280;25451;51.960;6.250;2023-02-13T04:00:51;103584.19;;;8.34;73.51
39773;BME280;25451;51.960;6.250;2023-02-13T04:06:02;103577.97;;;8.32;73.74
39773;BME280;25451;51.960;6.250;2023-02-13T04:08:28;103584.00;;;8.36;73.98
39773;BME280;25451;51.960;6.250;2023-02-13T04:11:01;103580.88;;;8.31;73.45
39773;BME280;25451;51.960;6.250;2023-02-13T04:13:34;103575.94;;;8.34;73.29
39773;BME280;25451;51.960;6.250;2023-02-13T04:16:09;103561.78;;;8.29;73.71
39773;BME280;25451;51.960;6.250;2023-02-13T04:18:36;103579.69;;;8.33;74.00
39773;BME280;25451;51.960;6.250;2023-02-13T04:21:04;103569.38;;;8.35;73.63
39773;BME280;25451;51.960;6.250;2023-02-13T04:23:29;103579.38;;;8.37;73.47
39773;BME280;25451;51.960;6.250;2023-02-13T04:25:55;103580.22;;;8.37;73.92
39773;BME280;25451;51.960;6.250;2023-02-13T04:28:21;103583.13;;;8.35;73.87
39773;BME280;25451;51.960;6.250;2023-02-13T04:30:46;103586.59;;;8.38;73.51
39773;BME280;25451;51.960;6.250;2023-02-13T04:33:12;103592.09;;;8.38;73.62
39773;BME280;25451;51.960;6.250;2023-02-13T04:35:37;103588.63;;;8.35;73.81
39773;BME280;25451;51.960;6.250;2023-02-13T04:38:03;103587.63;;;8.37;73.82
39773;BME280;25451;51.960;6.250;2023-02-13T04:40:28;103593.97;;;8.37;74.13
39773;BME280;25451;51.960;6.250;2023-02-13T04:42:54;103584.19;;;8.34;73.96
39773;BME280;25451;51.960;6.250;2023-02-13T04:45:19;103589.16;;;8.39;74.14
39773;BME280;25451;51.960;6.250;2023-02-13T04:47:52;103586.75;;;8.36;74.04
39773;BME280;25451;51.960;6.250;2023-02-13T04:50:17;103578.34;;;8.38;73.72
39773;BME280;25451;51.960;6.250;2023-02-13T04:52:43;103587.47;;;8.38;73.46
39773;BME280;25451;51.960;6.250;2023-02-13T04:55:08;103583.31;;;8.34;74.09
39773;BME280;25451;51.960;6.250;2023-02-13T04:57:33;103584.00;;;8.36;73.69
39773;BME280;25451;51.960;6.250;2023-02-13T04:59:59;103576.22;;;8.31;73.75
39773;BME280;25451;51.960;6.250;2023-02-13T05:02:24;103576.94;;;8.33;74.02
39773;BME280;25451;51.960;6.250;2023-02-13T05:04:49;103572.31;;;8.34;73.83
39773;BME280;25451;51.960;6.250;2023-02-13T05:07:15;103564.22;;;8.32;73.70
39773;BME280;25451;51.960;6.250;2023-02-13T05:09:40;103570.25;;;8.36;73.69
39773;BME280;25451;51.960;6.250;2023-02-13T05:12:05;103562.88;;;8.37;73.85
39773;BME280;25451;51.960;6.250;2023-02-13T05:14:31;103566.63;;;8.35;73.77
39773;BME280;25451;51.960;6.250;2023-02-13T05:16:56;103562.16;;;8.34;73.49
39773;BME280;25451;51.960;6.250;2023-02-13T05:19:21;103560.59;;;8.32;73.81
39773;BME280;25451;51.960;6.250;2023-02-13T05:21:47;103561.47;;;8.32;74.18
39773;BME280;25451;51.960;6.250;2023-02-13T05:24:30;103555.41;;;8.29;73.73
39773;BME280;25451;51.960;6.250;2023-02-13T05:26:56;103560.41;;;8.33;74.19
39773;BME280;25451;51.960;6.250;2023-02-13T05:29:21;103559.41;;;8.34;73.96
39773;BME280;25451;51.960;6.250;2023-02-13T05:34:15;103561.28;;;8.34;73.78
39773;BME280;25451;51.960;6.250;2023-02-13T05:36:40;103557.66;;;8.33;73.79
39773;BME280;25451;51.960;6.250;2023-02-13T05:39:06;103551.47;;;8.31;73.83
39773;BME280;25451;51.960;6.250;2023-02-13T05:41:31;103555.97;;;8.32;74.24
39773;BME280;25451;51.960;6.250;2023-02-13T05:43:57;103561.28;;;8.34;73.92
39773;BME280;25451;51.960;6.250;2023-02-13T05:46:22;103561.78;;;8.29;73.85
39773;BME280;25451;51.960;6.250;2023-02-13T05:48:47;103555.09;;;8.32;73.79
39773;BME280;25451;51.960;6.250;2023-02-13T05:51:13;103562.31;;;8.33;73.78
39773;BME280;25451;51.960;6.250;2023-02-13T05:53:38;103561.59;;;8.31;74.25
39773;BME280;25451;51.960;6.250;2023-02-13T05:56:04;103553.69;;;8.28;73.79
39773;BME280;25451;51.960;6.250;2023-02-13T05:58:30;103562.31;;;8.33;74.14
39773;BME280;25451;51.960;6.250;2023-02-13T06:00:56;103560.25;;;8.35;74.14
39773;BME280;25451;51.960;6.250;2023-02-13T06:03:23;103550.75;;;8.29;74.04
39773;BME280;25451;51.960;6.250;2023-02-13T06:05:49;103561.28;;;8.34;74.09
39773;BME280;25451;51.960;6.250;2023-02-13T06:08:14;103559.41;;;8.34;73.91
39773;BME280;25451;51.960;6.250;2023-02-13T06:10:39;103554.75;;;8.35;74.19
39773;BME280;25451;51.960;6.250;2023-02-13T06:13:04;103554.75;;;8.35;73.99
39773;BME280;25451;51.960;6.250;2023-02-13T06:15:30;103556.78;;;8.33;74.23
39773;BME280;25451;51.960;6.250;2023-02-13T06:17:55;103561.28;;;8.34;74.11
39773;BME280;25451;51.960;6.250;2023-02-13T06:20:20;103558.53;;;8.34;73.69
39773;BME280;25451;51.960;6.250;2023-02-13T06:22:52;103557.34;;;8.37;73.71
39773;BME280;25451;51.960;6.250;2023-02-13T06:25:18;103559.25;;;8.36;74.00
39773;BME280;25451;51.960;6.250;2023-02-13T06:27:44;103563.19;;;8.33;73.94
39773;BME280;25451;51.960;6.250;2023-02-13T06:30:10;103568.38;;;8.37;73.71
39773;BME280;25451;51.960;6.250;2023-02-13T06:32:35;103561.13;;;8.35;73.76
39773;BME280;25451;51.960;6.250;2023-02-13T06:35:00;103573.88;;;8.37;73.60
39773;BME280;25451;51.960;6.250;2023-02-13T06:37:26;103566.63;;;8.35;73.69
39773;BME280;25451;51.960;6.250;2023-02-13T06:39:51;103566.63;;;8.35;73.79
39773;BME280;25451;51.960;6.250;2023-02-13T06:42:16;103566.97;;;8.32;73.89
39773;BME280;25451;51.960;6.250;2023-02-13T06:44:43;103570.41;;;8.34;73.71
39773;BME280;25451;51.960;6.250;2023-02-13T06:47:08;103575.75;;;8.36;73.81
39773;BME280;25451;51.960;6.250;2023-02-13T06:49:33;103568.50;;;8.35;73.95
39773;BME280;25451;51.960;6.250;2023-02-13T06:51:58;103573.88;;;8.37;73.83
39773;BME280;25451;51.960;6.250;2023-02-13T06:54:24;103580.22;;;8.37;74.22
39773;BME280;25451;51.960;6.250;2023-02-13T06:56:49;103581.09;;;8.38;74.10
39773;BME280;25451;51.960;6.250;2023-02-13T06:59:14;103579.38;;;8.37;74.09
39773;BME280;25451;51.960;6.250;2023-02-13T07:01:40;103581.09;;;8.38;74.28
39773;BME280;25451;51.960;6.250;2023-02-13T07:04:05;103583.66;;;8.39;73.99
39773;BME280;25451;51.960;6.250;2023-02-13T07:06:30;103581.09;;;8.38;73.97
39773;BME280;25451;51.960;6.250;2023-02-13T07:08:55;103579.38;;;8.37;73.99
39773;BME280;25451;51.960;6.250;2023-02-13T07:11:22;103580.78;;;8.41;74.00
39773;BME280;25451;51.960;6.250;2023-02-13T07:13:48;103578.34;;;8.38;73.96
39773;BME280;25451;51.960;6.250;2023-02-13T07:16:13;103597.28;;;8.41;73.65
39773;BME280;25451;51.960;6.250;2023-02-13T07:18:39;103596.25;;;8.42;74.00
39773;BME280;25451;51.960;6.250;2023-02-13T07:21:04;103601.59;;;8.43;74.21
39773;BME280;25451;51.960;6.250;2023-02-13T07:23:30;103601.06;;;8.40;74.06
39773;BME280;25451;51.960;6.250;2023-02-13T07:25:58;103612.44;;;8.45;74.16
39773;BME280;25451;51.960;6.250;2023-02-13T07:28:24;103604.19;;;8.45;73.71
39773;BME280;25451;51.960;6.250;2023-02-13T07:30:49;103599.88;;;8.42;73.92
39773;BME280;25451;51.960;6.250;2023-02-13T07:33:14;103607.66;;;8.47;73.75
39773;BME280;25451;51.960;6.250;2023-02-13T07:35:45;103606.94;;;8.45;74.25
39773;BME280;25451;51.960;6.250;2023-02-13T07:38:10;103614.69;;;8.49;74.15
39773;BME280;25451;51.960;6.250;2023-02-13T07:40:36;103604.19;;;8.45;73.76
39773;BME280;25451;51.960;6.250;2023-02-13T07:43:01;103611.78;;;8.51;74.20
39773;BME280;25451;51.960;6.250;2023-02-13T07:45:26;103617.13;;;8.52;73.84
39773;BME280;25451;51.960;6.250;2023-02-13T07:47:54;103614.56;;;8.51;74.05
39773;BME280;25451;51.960;6.250;2023-02-13T07:50:20;103620.41;;;8.56;73.86
39773;BME280;25451;51.960;6.250;2023-02-13T07:52:54;103605.78;;;8.55;73.77
39773;BME280;25451;51.960;6.250;2023-02-13T07:55:20;103599.44;;;8.55;74.16
39773;BME280;25451;51.960;6.250;2023-02-13T07:57:45;103604.25;;;8.53;73.88
39773;BME280;25451;51.960;6.250;2023-02-13T08:00:11;103616.16;;;8.61;74.11
39773;BME280;25451;51.960;6.250;2023-02-13T08:02:37;103618.06;;;8.61;73.84
39773;BME280;25451;51.960;6.250;2023-02-13T08:05:02;103626.84;;;8.64;73.99
39773;BME280;25451;51.960;6.250;2023-02-13T08:07:27;103622.38;;;8.63;73.84
39773;BME280;25451;51.960;6.250;2023-02-13T08:09:53;103622.91;;;8.67;74.04
39773;BME280;25451;51.960;6.250;2023-02-13T08:12:37;103620.84;;;8.69;73.57
39773;BME280;25451;51.960;6.250;2023-02-13T08:15:03;103629.81;;;8.71;74.25
39773;BME280;25451;51.960;6.250;2023-02-13T08:17:28;103631.50;;;8.72;74.03
39773;BME280;25451;51.960;6.250;2023-02-13T08:19:53;103617.75;;;8.72;74.07
39773;BME280;25451;51.960;6.250;2023-02-13T08:22:19;103624.66;;;8.76;74.16
39773;BME280;25451;51.960;6.250;2023-02-13T08:24:44;103619.47;;;8.73;74.14
39773;BME280;25451;51.960;6.250;2023-02-13T08:27:12;103619.69;;;8.79;74.01
39773;BME280;25451;51.960;6.250;2023-02-13T08:29:37;103622.28;;;8.81;73.94
39773;BME280;25451;51.960;6.250;2023-02-13T08:32:03;103611.75;;;8.76;74.05
39773;BME280;25451;51.960;6.250;2023-02-13T08:34:28;103618.16;;;8.85;74.11
39773;BME280;25451;51.960;6.250;2023-02-13T08:36:53;103617.47;;;8.83;73.76
39773;BME280;25451;51.960;6.250;2023-02-13T08:39:19;103626.25;;;8.86;74.04
39773;BME280;25451;51.960;6.250;2023-02-13T08:41:44;103605.41;;;8.84;73.92
39773;BME280;25451;51.960;6.250;2023-02-13T08:44:09;103621.63;;;8.87;73.86
39773;BME280;25451;51.960;6.250;2023-02-13T08:46:35;103621.25;;;8.90;73.95
39773;BME280;25451;51.960;6.250;2023-02-13T08:49:00;103630.22;;;8.92;73.81
39773;BME280;25451;51.960;6.250;2023-02-13T08:51:25;103638.69;;;8.98;73.84
39773;BME280;25451;51.960;6.250;2023-02-13T08:53:51;103625.78;;;8.99;73.95
39773;BME280;25451;51.960;6.250;2023-02-13T08:56:16;103630.13;;;9.01;73.80
39773;BME280;25451;51.960;6.250;2023-02-13T08:58:42;103628.06;;;9.03;74.00
39773;BME280;25451;51.960;6.250;2023-02-13T09:01:08;103638.41;;;9.09;73.82
39773;BME280;25451;51.960;6.250;2023-02-13T09:03:34;103632.72;;;9.11;74.13
39773;BME280;25451;51.960;6.250;2023-02-13T09:06:00;103632.22;;;9.15;73.95
39773;BME280;25451;51.960;6.250;2023-02-13T09:08:26;103632.75;;;9.19;73.64
39773;BME280;25451;51.960;6.250;2023-02-13T09:10:59;103638.66;;;9.24;73.62
39773;BME280;25451;51.960;6.250;2023-02-13T09:13:26;103628.31;;;9.26;74.27
39773;BME280;25451;51.960;6.250;2023-02-13T09:15:52;103622.28;;;9.31;74.10
39773;BME280;25451;51.960;6.250;2023-02-13T09:18:18;103620.06;;;9.34;73.64
39773;BME280;25451;51.960;6.250;2023-02-13T09:20:43;103617.66;;;9.39;73.92
39773;BME280;25451;51.960;6.250;2023-02-13T09:23:08;103622.66;;;9.44;73.73
39773;BME280;25451;51.960;6.250;2023-02-13T09:25:33;103619.72;;;9.45;73.89
39773;BME280;25451;51.960;6.250;2023-02-13T09:27:59;103616.28;;;9.51;73.81
39773;BME280;25451;51.960;6.250;2023-02-13T09:30:24;103621.47;;;9.54;73.94
39773;BME280;25451;51.960;6.250;2023-02-13T09:32:53;103619.94;;;9.60;73.95
39773;BME280;25451;51.960;6.250;2023-02-13T09:35:20;103620.44;;;9.63;73.70
39773;BME280;25451;51.960;6.250;2023-02-13T09:37:46;103613.22;;;9.70;74.17
39773;BME280;25451;51.960;6.250;2023-02-13T09:40:18;103615.28;;;9.76;73.73
39773;BME280;25451;51.960;6.250;2023-02-13T09:42:45;103629.97;;;9.85;73.75
39773;BME280;25451;51.960;6.250;2023-02-13T09:45:12;103620.81;;;9.92;73.67
39773;BME280;25451;51.960;6.250;2023-02-13T09:47:41;103632.34;;;10.04;73.76
39773;BME280;25451;51.960;6.250;2023-02-13T09:50:13;103634.81;;;10.15;73.74
39773;BME280;25451;51.960;6.250;2023-02-13T09:52:43;103630.84;;;10.26;73.76
39773;BME280;25451;51.960;6.250;2023-02-13T09:55:14;103630.47;;;10.37;73.91
39773;BME280;25451;51.960;6.250;2023-02-13T09:57:57;103638.03;;;10.51;74.09
39773;BME280;25451;51.960;6.250;2023-02-13T10:00:34;103633.16;;;10.61;73.85
39773;BME280;25451;51.960;6.250;2023-02-13T10:03:28;103639.34;;;10.71;73.89
39773;BME280;25451;51.960;6.250;2023-02-13T10:06:07;103641.25;;;10.78;73.81
39773;BME280;25451;51.960;6.250;2023-02-13T10:08:51;103633.13;;;10.85;74.09
39773;BME280;25451;51.960;6.250;2023-02-13T10:16:44;103637.53;;;11.02;73.88
39773;BME280;25451;51.960;6.250;2023-02-13T10:19:34;103633.56;;;11.05;73.87
39773;BME280;25451;51.960;6.250;2023-02-13T10:22:06;103618.84;;;11.04;74.06
39773;BME280;25451;51.960;6.250;2023-02-13T10:24:43;103628.16;;;11.11;74.24
39773;BME280;25451;51.960;6.250;2023-02-13T10:27:27;103638.84;;;11.14;73.99
39773;BME280;25451;51.960;6.250;2023-02-13T10:29:57;103622.44;;;11.13;74.26
39773;BME280;25451;51.960;6.250;2023-02-13T10:35:22;103630.50;;;11.22;73.98
39773;BME280;25451;51.960;6.250;2023-02-13T10:37:53;103626.56;;;11.17;73.79
39773;BME280;25451;51.960;6.250;2023-02-13T10:40:19;103635.03;;;11.23;74.16
39773;BME280;25451;51.960;6.250;2023-02-13T10:43:08;103632.94;;;11.25;73.88
39773;BME280;25451;51.960;6.250;2023-02-13T10:51:41;103621.69;;;11.27;73.75
39773;BME280;25451;51.960;6.250;2023-02-13T10:57:24;103615.91;;;11.36;73.58
39773;BME280;25451;51.960;6.250;2023-02-13T11:00:06;103614.50;;;11.40;73.76
39773;BME280;25451;51.960;6.250;2023-02-13T11:02:34;103603.59;;;11.47;73.89
39773;BME280;25451;51.960;6.250;2023-02-13T11:05:21;103598.38;;;11.52;73.86
39773;BME280;25451;51.960;6.250;2023-02-13T11:07:48;103599.06;;;11.54;73.49
39773;BME280;25451;51.960;6.250;2023-02-13T11:10:15;103601.94;;;11.60;73.66
39773;BME280;25451;51.960;6.250;2023-02-13T11:12:41;103597.78;;;11.64;73.82
39773;BME280;25451;51.960;6.250;2023-02-13T11:17:51;103602.00;;;11.75;73.46
39773;BME280;25451;51.960;6.250;2023-02-13T11:20:40;103596.59;;;11.82;73.61
39773;BME280;25451;51.960;6.250;2023-02-13T11:26:14;103587.56;;;11.88;73.34
39773;BME280;25451;51.960;6.250;2023-02-13T11:28:57;103579.06;;;11.89;73.34
39773;BME280;25451;51.960;6.250;2023-02-13T11:31:31;103583.84;;;11.95;73.60
39773;BME280;25451;51.960;6.250;2023-02-13T11:33:59;103582.94;;;12.03;73.36
39773;BME280;25451;51.960;6.250;2023-02-13T11:36:29;103581.31;;;12.08;73.46
39773;BME280;25451;51.960;6.250;2023-02-13T11:39:04;103581.25;;;12.16;73.80
39773;BME280;25451;51.960;6.250;2023-02-13T11:41:35;103586.69;;;12.24;73.79
39773;BME280;25451;51.960;6.250;2023-02-13T11:44:02;103567.97;;;12.26;73.65
39773;BME280;25451;51.960;6.250;2023-02-13T11:46:49;103575.16;;;12.35;73.57
39773;BME280;25451;51.960;6.250;2023-02-13T11:49:19;103575.25;;;12.42;73.88
39773;BME280;25451;51.960;6.250;2023-02-13T11:51:56;103583.19;;;12.45;73.36
39773;BME280;25451;51.960;6.250;2023-02-13T11:54:34;103572.78;;;12.47;73.75
39773;BME280;25451;51.960;6.250;2023-02-13T11:59:32;103556.81;;;12.49;73.58
39773;BME280;25451;51.960;6.250;2023-02-13T12:02:08;103559.22;;;12.52;73.61
39773;BME280;25451;51.960;6.250;2023-02-13T12:04:36;103552.25;;;12.56;73.72
39773;BME280;25451;51.960;6.250;2023-02-13T12:07:25;103556.34;;;12.60;73.33
39773;BME280;25451;51.960;6.250;2023-02-13T12:10:00;103551.47;;;12.62;73.52
39773;BME280;25451;51.960;6.250;2023-02-13T12:12:39;103542.97;;;12.64;73.35
39773;BME280;25451;51.960;6.250;2023-02-13T12:15:17;103545.53;;;12.65;73.57
39773;BME280;25451;51.960;6.250;2023-02-13T12:17:46;103546.22;;;12.67;73.02
39773;BME280;25451;51.960;6.250;2023-02-13T12:20:15;103551.09;;;12.65;73.14
39773;BME280;25451;51.960;6.250;2023-02-13T12:22:46;103546.78;;;12.63;72.85
39773;BME280;25451;51.960;6.250;2023-02-13T12:28:11;103553.94;;;12.57;72.74
39773;BME280;25451;51.960;6.250;2023-02-13T12:30:58;103553.94;;;12.57;72.86
39773;BME280;25451;51.960;6.250;2023-02-13T12:36:01;103553.50;;;12.54;72.84
39773;BME280;25451;51.960;6.250;2023-02-13T12:44:16;103534.19;;;12.45;72.40
39773;BME280;25451;51.960;6.250;2023-02-13T12:52:35;103526.25;;;12.42;71.97
39773;BME280;25451;51.960;6.250;2023-02-13T12:55:17;103513.16;;;12.36;72.18
39773;BME280;25451;51.960;6.250;2023-02-13T13:00:46;103509.25;;;12.31;71.94
39773;BME280;25451;51.960;6.250;2023-02-13T13:25:17;103495.03;;;12.19;71.50
39773;BME280;25451;51.960;6.250;2023-02-13T13:27:50;103491.41;;;12.19;71.63
39773;BME280;25451;51.960;6.250;2023-02-13T13:30:27;103489.84;;;12.16;71.11
39773;BME280;25451;51.960;6.250;2023-02-13T13:33:00;103481.44;;;12.10;71.36
39773;BME280;25451;51.960;6.250;2023-02-13T13:35:27;103485.56;;;12.14;71.28
39773;BME280;25451;51.960;6.250;2023-02-13T13:37:58;103489.38;;;12.13;71.08
39773;BME280;25451;51.960;6.250;2023-02-13T13:46:10;103476.09;;;12.08;70.95
39773;BME280;25451;51.960;6.250;2023-02-13T13:51:19;103472.66;;;12.06;71.29
39773;BME280;25451;51.960;6.250;2023-02-13T13:54:17;103465.44;;;12.05;70.85
39773;BME280;25451;51.960;6.250;2023-02-13T14:05:21;103450.41;;;12.00;70.90
39773;BME280;25451;51.960;6.250;2023-02-13T14:08:02;103455.94;;;12.00;70.79
39773;BME280;25451;51.960;6.250;2023-02-13T14:18:17;103440.09;;;11.94;70.57
39773;BME280;25451;51.960;6.250;2023-02-13T14:23:51;103432.00;;;11.92;70.47
39773;BME280;25451;51.960;6.250;2023-02-13T14:26:31;103430.25;;;11.91;70.77
39773;BME280;25451;51.960;6.250;2023-02-13T14:31:35;103428.09;;;11.87;70.61
39773;BME280;25451;51.960;6.250;2023-02-13T14:34:35;103426.84;;;11.89;70.56
39773;BME280;25451;51.960;6.250;2023-02-13T14:37:14;103421.28;;;11.89;70.36
39773;BME280;25451;51.960;6.250;2023-02-13T14:42:35;103435.34;;;11.88;70.43
39773;BME280;25451;51.960;6.250;2023-02-13T14:45:04;103431.69;;;11.87;70.68
39773;BME280;25451;51.960;6.250;2023-02-13T14:47:39;103432.75;;;11.86;70.33
39773;BME280;25451;51.960;6.250;2023-02-13T14:50:15;103430.00;;;11.86;70.66
39773;BME280;25451;51.960;6.250;2023-02-13T14:52:43;103428.25;;;11.85;70.58
39773;BME280;25451;51.960;6.250;2023-02-13T14:55:27;103429.31;;;11.84;70.61
39773;BME280;25451;51.960;6.250;2023-02-13T14:58:04;103420.56;;;11.81;70.57
39773;BME280;25451;51.960;6.250;2023-02-13T15:00:54;103432.09;;;11.84;70.24
39773;BME280;25451;51.960;6.250;2023-02-13T15:06:02;103422.06;;;11.83;70.48
39773;BME280;25451;51.960;6.250;2023-02-13T15:08:41;103420.34;;;11.82;70.44
39773;BME280;25451;51.960;6.250;2023-02-13T15:11:09;103402.78;;;11.75;70.67
39773;BME280;25451;51.960;6.250;2023-02-13T15:13:54;103415.03;;;11.81;70.55
39773;BME280;25451;51.960;6.250;2023-02-13T15:16:19;103413.47;;;11.78;70.28
39773;BME280;25451;51.960;6.250;2023-02-13T15:18:49;103408.81;;;11.79;70.40
39773;BME280;25451;51.960;6.250;2023-02-13T15:21:21;103412.63;;;11.78;70.46
39773;BME280;25451;51.960;6.250;2023-02-13T15:23:50;103410.03;;;11.76;70.30
39773;BME280;25451;51.960;6.250;2023-02-13T15:26:21;103408.50;;;11.74;70.60
39773;BME280;25451;51.960;6.250;2023-02-13T15:29:19;103411.06;;;11.75;70.21
39773;BME280;25451;51.960;6.250;2023-02-13T15:31:43;103414.91;;;11.74;70.33
39773;BME280;25451;51.960;6.250;2023-02-13T15:34:30;103409.56;;;11.73;70.18
39773;BME280;25451;51.960;6.250;2023-02-13T15:36:58;103415.09;;;11.73;70.48
39773;BME280;25451;51.960;6.250;2023-02-13T15:39:26;103412.50;;;11.71;70.19